Webster, Nebraska
Current Conditions -  °F | °C
As of 10:53 PM on Wednesday 26 Nov 2014 (Local Time) from KODX Reporting Station
Broken Clouds Broken Clouds  
Wind Chill: 15°   Ceiling: 11000
Heat Index: 15°   Visibility: 10mi
Dew Point: 12°   Wind: 0mph
Humidity: 88%   Direction: NA
Pressure: 30.4"   Gusts: NA
Location:  41.3026°N, 99.0141°W
Report Text: KODX 270453Z AUTO 00000KT 10SM BKN110 M09/M11 A3040 RMK AO2 SLP331 T10941111
Loading
Personal Weather Stations






























Interactive Weather Map New forecast layout! Learn more

10-Day Weather Forecast

Advertisements
Track Severe Weather on mobile